sensor_id;sensor_type;location;lat;lon;timestamp;P1;durP1;ratioP1;P2;durP2;ratioP2
36445;SDS011;22472;50.848;-1.216;2023-11-21T00:02:26;0.95;;;0.10;;
36445;SDS011;22472;50.848;-1.216;2023-11-21T00:04:53;1.10;;;0.20;;
36445;SDS011;22472;50.848;-1.216;2023-11-21T00:07:20;1.48;;;0.10;;
36445;SDS011;22472;50.848;-1.216;2023-11-21T00:09:48;2.20;;;0.17;;
36445;SDS011;22472;50.848;-1.216;2023-11-21T00:12:16;1.50;;;0.20;;
36445;SDS011;22472;50.848;-1.216;2023-11-21T00:14:43;0.98;;;0.20;;
36445;SDS011;22472;50.848;-1.216;2023-11-21T00:17:10;3.08;;;0.10;;
36445;SDS011;22472;50.848;-1.216;2023-11-21T00:19:39;3.53;;;0.22;;
36445;SDS011;22472;50.848;-1.216;2023-11-21T00:22:07;1.07;;;0.20;;
36445;SDS011;22472;50.848;-1.216;2023-11-21T00:24:35;1.80;;;0.10;;
36445;SDS011;22472;50.848;-1.216;2023-11-21T00:27:02;3.45;;;0.17;;
36445;SDS011;22472;50.848;-1.216;2023-11-21T00:29:29;3.05;;;0.20;;
36445;SDS011;22472;50.848;-1.216;2023-11-21T00:31:57;0.35;;;0.10;;
36445;SDS011;22472;50.848;-1.216;2023-11-21T00:34:25;1.15;;;0.15;;
36445;SDS011;22472;50.848;-1.216;2023-11-21T00:36:53;1.92;;;0.20;;
36445;SDS011;22472;50.848;-1.216;2023-11-21T00:39:20;4.07;;;0.20;;
36445;SDS011;22472;50.848;-1.216;2023-11-21T00:41:48;1.90;;;0.20;;
36445;SDS011;22472;50.848;-1.216;2023-11-21T00:44:15;1.58;;;0.20;;
36445;SDS011;22472;50.848;-1.216;2023-11-21T00:46:42;2.15;;;0.20;;
36445;SDS011;22472;50.848;-1.216;2023-11-21T00:49:09;2.03;;;0.20;;
36445;SDS011;22472;50.848;-1.216;2023-11-21T00:51:37;1.88;;;0.20;;
36445;SDS011;22472;50.848;-1.216;2023-11-21T00:54:06;2.38;;;0.10;;
36445;SDS011;22472;50.848;-1.216;2023-11-21T00:56:33;0.75;;;0.15;;
36445;SDS011;22472;50.848;-1.216;2023-11-21T00:59:00;2.08;;;0.30;;
36445;SDS011;22472;50.848;-1.216;2023-11-21T01:01:28;0.90;;;0.20;;
36445;SDS011;22472;50.848;-1.216;2023-11-21T01:03:55;1.85;;;0.20;;
36445;SDS011;22472;50.848;-1.216;2023-11-21T01:06:22;2.42;;;0.30;;
36445;SDS011;22472;50.848;-1.216;2023-11-21T01:08:50;3.03;;;0.20;;
36445;SDS011;22472;50.848;-1.216;2023-11-21T01:11:18;4.45;;;0.30;;
36445;SDS011;22472;50.848;-1.216;2023-11-21T01:13:46;2.08;;;0.30;;
36445;SDS011;22472;50.848;-1.216;2023-11-21T01:16:13;2.78;;;0.30;;
36445;SDS011;22472;50.848;-1.216;2023-11-21T01:18:40;2.85;;;0.35;;
36445;SDS011;22472;50.848;-1.216;2023-11-21T01:21:07;2.65;;;0.30;;
36445;SDS011;22472;50.848;-1.216;2023-11-21T01:23:35;3.08;;;0.30;;
36445;SDS011;22472;50.848;-1.216;2023-11-21T01:26:02;4.10;;;0.30;;
36445;SDS011;22472;50.848;-1.216;2023-11-21T01:28:31;1.58;;;0.30;;
36445;SDS011;22472;50.848;-1.216;2023-11-21T01:30:58;1.90;;;0.30;;
36445;SDS011;22472;50.848;-1.216;2023-11-21T01:33:25;4.75;;;0.50;;
36445;SDS011;22472;50.848;-1.216;2023-11-21T01:35:52;4.57;;;0.40;;
36445;SDS011;22472;50.848;-1.216;2023-11-21T01:38:20;2.40;;;0.40;;
36445;SDS011;22472;50.848;-1.216;2023-11-21T01:40:48;4.35;;;0.28;;
36445;SDS011;22472;50.848;-1.216;2023-11-21T01:43:15;3.70;;;0.38;;
36445;SDS011;22472;50.848;-1.216;2023-11-21T01:45:44;2.50;;;0.30;;
36445;SDS011;22472;50.848;-1.216;2023-11-21T01:48:11;3.95;;;0.30;;
36445;SDS011;22472;50.848;-1.216;2023-11-21T01:50:39;1.88;;;0.30;;
36445;SDS011;22472;50.848;-1.216;2023-11-21T01:53:06;1.90;;;0.20;;
36445;SDS011;22472;50.848;-1.216;2023-11-21T01:55:34;4.15;;;0.40;;
36445;SDS011;22472;50.848;-1.216;2023-11-21T01:58:01;1.92;;;0.20;;
36445;SDS011;22472;50.848;-1.216;2023-11-21T02:00:28;3.08;;;0.30;;
36445;SDS011;22472;50.848;-1.216;2023-11-21T02:02:57;3.58;;;0.30;;
36445;SDS011;22472;50.848;-1.216;2023-11-21T02:05:24;2.45;;;0.40;;
36445;SDS011;22472;50.848;-1.216;2023-11-21T02:07:52;4.50;;;0.30;;
36445;SDS011;22472;50.848;-1.216;2023-11-21T02:10:19;2.10;;;0.30;;
36445;SDS011;22472;50.848;-1.216;2023-11-21T02:12:48;1.60;;;0.32;;
36445;SDS011;22472;50.848;-1.216;2023-11-21T02:15:16;3.88;;;0.38;;
36445;SDS011;22472;50.848;-1.216;2023-11-21T02:17:45;2.85;;;0.28;;
36445;SDS011;22472;50.848;-1.216;2023-11-21T02:20:17;4.40;;;0.40;;
36445;SDS011;22472;50.848;-1.216;2023-11-21T02:22:48;2.13;;;0.22;;
36445;SDS011;22472;50.848;-1.216;2023-11-21T02:25:17;3.25;;;0.40;;
36445;SDS011;22472;50.848;-1.216;2023-11-21T02:27:44;2.20;;;0.40;;
36445;SDS011;22472;50.848;-1.216;2023-11-21T02:30:14;2.97;;;0.43;;
36445;SDS011;22472;50.848;-1.216;2023-11-21T02:32:41;2.75;;;0.32;;
36445;SDS011;22472;50.848;-1.216;2023-11-21T02:35:09;4.13;;;0.60;;
36445;SDS011;22472;50.848;-1.216;2023-11-21T02:37:37;1.20;;;0.43;;
36445;SDS011;22472;50.848;-1.216;2023-11-21T02:40:08;3.20;;;0.50;;
36445;SDS011;22472;50.848;-1.216;2023-11-21T02:42:37;1.40;;;0.50;;
36445;SDS011;22472;50.848;-1.216;2023-11-21T02:45:05;2.05;;;0.47;;
36445;SDS011;22472;50.848;-1.216;2023-11-21T02:47:32;2.05;;;0.57;;
36445;SDS011;22472;50.848;-1.216;2023-11-21T02:50:00;2.33;;;0.77;;
36445;SDS011;22472;50.848;-1.216;2023-11-21T02:52:27;2.70;;;0.60;;
36445;SDS011;22472;50.848;-1.216;2023-11-21T02:54:54;2.70;;;0.55;;
36445;SDS011;22472;50.848;-1.216;2023-11-21T02:57:23;4.13;;;0.60;;
36445;SDS011;22472;50.848;-1.216;2023-11-21T02:59:50;2.30;;;0.75;;
36445;SDS011;22472;50.848;-1.216;2023-11-21T03:02:17;2.90;;;0.93;;
36445;SDS011;22472;50.848;-1.216;2023-11-21T03:04:44;1.42;;;0.73;;
36445;SDS011;22472;50.848;-1.216;2023-11-21T03:07:13;2.78;;;0.82;;
36445;SDS011;22472;50.848;-1.216;2023-11-21T03:09:40;2.90;;;1.10;;
36445;SDS011;22472;50.848;-1.216;2023-11-21T03:12:09;1.85;;;1.15;;
36445;SDS011;22472;50.848;-1.216;2023-11-21T03:14:38;3.35;;;1.20;;
36445;SDS011;22472;50.848;-1.216;2023-11-21T03:17:05;3.17;;;1.13;;
36445;SDS011;22472;50.848;-1.216;2023-11-21T03:19:33;3.50;;;1.35;;
36445;SDS011;22472;50.848;-1.216;2023-11-21T03:22:00;3.20;;;1.30;;
36445;SDS011;22472;50.848;-1.216;2023-11-21T03:24:29;3.00;;;1.25;;
36445;SDS011;22472;50.848;-1.216;2023-11-21T03:26:56;2.03;;;1.20;;
36445;SDS011;22472;50.848;-1.216;2023-11-21T03:29:23;3.45;;;1.23;;
36445;SDS011;22472;50.848;-1.216;2023-11-21T03:31:52;5.43;;;1.58;;
36445;SDS011;22472;50.848;-1.216;2023-11-21T03:34:52;3.55;;;1.50;;
36445;SDS011;22472;50.848;-1.216;2023-11-21T03:37:20;2.58;;;1.35;;
36445;SDS011;22472;50.848;-1.216;2023-11-21T03:39:48;2.17;;;1.30;;
36445;SDS011;22472;50.848;-1.216;2023-11-21T03:42:15;2.53;;;1.70;;
36445;SDS011;22472;50.848;-1.216;2023-11-21T03:44:42;3.67;;;2.08;;
36445;SDS011;22472;50.848;-1.216;2023-11-21T03:47:11;5.82;;;2.10;;
36445;SDS011;22472;50.848;-1.216;2023-11-21T03:49:38;4.75;;;1.63;;
36445;SDS011;22472;50.848;-1.216;2023-11-21T03:52:05;5.53;;;2.38;;
36445;SDS011;22472;50.848;-1.216;2023-11-21T03:54:34;5.32;;;2.20;;
36445;SDS011;22472;50.848;-1.216;2023-11-21T03:57:02;7.05;;;2.70;;
36445;SDS011;22472;50.848;-1.216;2023-11-21T03:59:29;3.95;;;2.80;;
36445;SDS011;22472;50.848;-1.216;2023-11-21T04:01:57;7.20;;;3.08;;
36445;SDS011;22472;50.848;-1.216;2023-11-21T04:04:26;5.00;;;3.30;;
36445;SDS011;22472;50.848;-1.216;2023-11-21T04:06:53;3.40;;;3.00;;
36445;SDS011;22472;50.848;-1.216;2023-11-21T04:09:21;4.60;;;3.40;;
36445;SDS011;22472;50.848;-1.216;2023-11-21T04:11:50;5.45;;;3.85;;
36445;SDS011;22472;50.848;-1.216;2023-11-21T04:14:17;5.47;;;4.05;;
36445;SDS011;22472;50.848;-1.216;2023-11-21T04:16:45;8.05;;;5.30;;
36445;SDS011;22472;50.848;-1.216;2023-11-21T04:19:12;6.15;;;5.10;;
36445;SDS011;22472;50.848;-1.216;2023-11-21T04:21:42;5.97;;;4.50;;
36445;SDS011;22472;50.848;-1.216;2023-11-21T04:24:09;5.00;;;4.40;;
36445;SDS011;22472;50.848;-1.216;2023-11-21T04:26:37;5.55;;;4.57;;
36445;SDS011;22472;50.848;-1.216;2023-11-21T04:29:04;6.25;;;4.55;;
36445;SDS011;22472;50.848;-1.216;2023-11-21T04:31:31;5.47;;;4.60;;
36445;SDS011;22472;50.848;-1.216;2023-11-21T04:33:58;5.90;;;4.65;;
36445;SDS011;22472;50.848;-1.216;2023-11-21T04:36:26;8.65;;;5.07;;
36445;SDS011;22472;50.848;-1.216;2023-11-21T04:38:57;7.15;;;4.60;;
36445;SDS011;22472;50.848;-1.216;2023-11-21T04:41:24;7.70;;;4.80;;
36445;SDS011;22472;50.848;-1.216;2023-11-21T04:43:52;8.18;;;4.88;;
36445;SDS011;22472;50.848;-1.216;2023-11-21T04:46:19;6.22;;;5.07;;
36445;SDS011;22472;50.848;-1.216;2023-11-21T04:48:46;5.45;;;4.80;;
36445;SDS011;22472;50.848;-1.216;2023-11-21T04:51:14;6.25;;;4.50;;
36445;SDS011;22472;50.848;-1.216;2023-11-21T04:53:41;7.60;;;4.20;;
36445;SDS011;22472;50.848;-1.216;2023-11-21T04:56:10;6.18;;;3.90;;
36445;SDS011;22472;50.848;-1.216;2023-11-21T04:58:37;4.50;;;3.80;;
36445;SDS011;22472;50.848;-1.216;2023-11-21T05:01:05;5.35;;;3.30;;
36445;SDS011;22472;50.848;-1.216;2023-11-21T05:03:33;4.38;;;3.05;;
36445;SDS011;22472;50.848;-1.216;2023-11-21T05:06:01;4.40;;;3.20;;
36445;SDS011;22472;50.848;-1.216;2023-11-21T05:08:30;4.57;;;3.22;;
36445;SDS011;22472;50.848;-1.216;2023-11-21T05:10:57;3.15;;;2.60;;
36445;SDS011;22472;50.848;-1.216;2023-11-21T05:13:26;3.05;;;2.58;;
36445;SDS011;22472;50.848;-1.216;2023-11-21T05:15:53;3.15;;;2.60;;
36445;SDS011;22472;50.848;-1.216;2023-11-21T05:18:21;2.85;;;2.53;;
36445;SDS011;22472;50.848;-1.216;2023-11-21T05:20:48;3.30;;;2.20;;
36445;SDS011;22472;50.848;-1.216;2023-11-21T05:23:16;3.45;;;2.15;;
36445;SDS011;22472;50.848;-1.216;2023-11-21T05:25:43;4.38;;;2.33;;
36445;SDS011;22472;50.848;-1.216;2023-11-21T05:28:11;3.65;;;2.17;;
36445;SDS011;22472;50.848;-1.216;2023-11-21T05:30:40;2.70;;;2.13;;
36445;SDS011;22472;50.848;-1.216;2023-11-21T05:33:07;3.10;;;2.00;;
36445;SDS011;22472;50.848;-1.216;2023-11-21T05:35:35;2.08;;;1.88;;
36445;SDS011;22472;50.848;-1.216;2023-11-21T05:38:02;3.22;;;1.77;;
36445;SDS011;22472;50.848;-1.216;2023-11-21T05:40:30;3.00;;;1.73;;
36445;SDS011;22472;50.848;-1.216;2023-11-21T05:42:58;3.13;;;1.77;;
36445;SDS011;22472;50.848;-1.216;2023-11-21T05:45:25;2.35;;;1.33;;
36445;SDS011;22472;50.848;-1.216;2023-11-21T05:47:55;3.08;;;1.60;;
36445;SDS011;22472;50.848;-1.216;2023-11-21T05:50:22;2.95;;;1.60;;
36445;SDS011;22472;50.848;-1.216;2023-11-21T05:52:50;4.88;;;1.65;;
36445;SDS011;22472;50.848;-1.216;2023-11-21T05:55:17;2.65;;;1.23;;
36445;SDS011;22472;50.848;-1.216;2023-11-21T05:57:46;1.40;;;1.20;;
36445;SDS011;22472;50.848;-1.216;2023-11-21T06:00:14;1.50;;;1.33;;
36445;SDS011;22472;50.848;-1.216;2023-11-21T06:02:45;2.15;;;1.60;;
36445;SDS011;22472;50.848;-1.216;2023-11-21T06:05:14;2.28;;;1.98;;
36445;SDS011;22472;50.848;-1.216;2023-11-21T06:07:42;3.17;;;1.85;;
36445;SDS011;22472;50.848;-1.216;2023-11-21T06:10:10;2.63;;;1.58;;
36445;SDS011;22472;50.848;-1.216;2023-11-21T06:12:39;2.53;;;1.92;;
36445;SDS011;22472;50.848;-1.216;2023-11-21T06:15:08;2.30;;;1.80;;
36445;SDS011;22472;50.848;-1.216;2023-11-21T06:17:38;3.88;;;2.65;;
36445;SDS011;22472;50.848;-1.216;2023-11-21T06:20:06;3.13;;;2.88;;
36445;SDS011;22472;50.848;-1.216;2023-11-21T06:22:36;3.65;;;2.63;;
36445;SDS011;22472;50.848;-1.216;2023-11-21T06:25:04;3.25;;;2.33;;
36445;SDS011;22472;50.848;-1.216;2023-11-21T06:27:32;3.42;;;2.00;;
36445;SDS011;22472;50.848;-1.216;2023-11-21T06:30:01;2.20;;;1.60;;
36445;SDS011;22472;50.848;-1.216;2023-11-21T06:32:29;2.80;;;1.50;;
36445;SDS011;22472;50.848;-1.216;2023-11-21T06:34:56;1.80;;;1.30;;
36445;SDS011;22472;50.848;-1.216;2023-11-21T06:37:24;2.25;;;1.38;;
36445;SDS011;22472;50.848;-1.216;2023-11-21T06:39:53;1.45;;;1.10;;
36445;SDS011;22472;50.848;-1.216;2023-11-21T06:42:21;2.57;;;0.90;;
36445;SDS011;22472;50.848;-1.216;2023-11-21T06:44:49;1.45;;;0.80;;
36445;SDS011;22472;50.848;-1.216;2023-11-21T06:47:17;2.65;;;0.95;;
36445;SDS011;22472;50.848;-1.216;2023-11-21T06:49:45;1.77;;;0.80;;
36445;SDS011;22472;50.848;-1.216;2023-11-21T06:52:14;1.58;;;0.60;;
36445;SDS011;22472;50.848;-1.216;2023-11-21T06:54:41;2.42;;;0.50;;
36445;SDS011;22472;50.848;-1.216;2023-11-21T06:57:10;1.52;;;0.47;;
36445;SDS011;22472;50.848;-1.216;2023-11-21T06:59:37;0.73;;;0.30;;
36445;SDS011;22472;50.848;-1.216;2023-11-21T07:02:04;1.13;;;0.40;;
36445;SDS011;22472;50.848;-1.216;2023-11-21T07:04:32;0.60;;;0.30;;
36445;SDS011;22472;50.848;-1.216;2023-11-21T07:06:59;1.27;;;0.25;;
36445;SDS011;22472;50.848;-1.216;2023-11-21T07:09:27;1.00;;;0.20;;
36445;SDS011;22472;50.848;-1.216;2023-11-21T07:11:54;0.45;;;0.20;;
36445;SDS011;22472;50.848;-1.216;2023-11-21T07:14:23;0.80;;;0.20;;
36445;SDS011;22472;50.848;-1.216;2023-11-21T07:16:50;1.75;;;0.25;;
36445;SDS011;22472;50.848;-1.216;2023-11-21T07:19:17;0.88;;;0.20;;
36445;SDS011;22472;50.848;-1.216;2023-11-21T07:21:45;2.58;;;0.30;;
36445;SDS011;22472;50.848;-1.216;2023-11-21T07:24:12;1.05;;;0.30;;
36445;SDS011;22472;50.848;-1.216;2023-11-21T07:26:39;2.35;;;0.35;;
36445;SDS011;22472;50.848;-1.216;2023-11-21T07:29:06;2.72;;;0.50;;
36445;SDS011;22472;50.848;-1.216;2023-11-21T07:31:35;2.75;;;0.50;;
36445;SDS011;22472;50.848;-1.216;2023-11-21T07:34:03;1.13;;;0.30;;
36445;SDS011;22472;50.848;-1.216;2023-11-21T07:36:30;2.83;;;0.43;;
36445;SDS011;22472;50.848;-1.216;2023-11-21T07:38:58;1.90;;;0.60;;
36445;SDS011;22472;50.848;-1.216;2023-11-21T07:41:25;1.45;;;0.60;;
36445;SDS011;22472;50.848;-1.216;2023-11-21T07:43:54;3.53;;;0.80;;
36445;SDS011;22472;50.848;-1.216;2023-11-21T07:46:22;3.15;;;0.70;;
36445;SDS011;22472;50.848;-1.216;2023-11-21T07:48:52;1.33;;;0.82;;
36445;SDS011;22472;50.848;-1.216;2023-11-21T07:51:20;1.10;;;0.52;;
36445;SDS011;22472;50.848;-1.216;2023-11-21T07:53:47;1.05;;;0.50;;
36445;SDS011;22472;50.848;-1.216;2023-11-21T07:56:14;1.90;;;0.57;;
36445;SDS011;22472;50.848;-1.216;2023-11-21T07:58:43;2.03;;;0.60;;
36445;SDS011;22472;50.848;-1.216;2023-11-21T08:01:10;1.25;;;0.50;;
36445;SDS011;22472;50.848;-1.216;2023-11-21T08:03:38;1.30;;;0.32;;
36445;SDS011;22472;50.848;-1.216;2023-11-21T08:06:07;2.05;;;0.60;;
36445;SDS011;22472;50.848;-1.216;2023-11-21T08:08:34;2.35;;;0.60;;
36445;SDS011;22472;50.848;-1.216;2023-11-21T08:11:01;1.85;;;0.50;;
36445;SDS011;22472;50.848;-1.216;2023-11-21T08:13:29;2.10;;;0.40;;
36445;SDS011;22472;50.848;-1.216;2023-11-21T08:15:56;2.00;;;0.50;;
36445;SDS011;22472;50.848;-1.216;2023-11-21T08:18:27;1.42;;;0.30;;
36445;SDS011;22472;50.848;-1.216;2023-11-21T08:20:55;2.17;;;0.30;;
36445;SDS011;22472;50.848;-1.216;2023-11-21T08:23:24;1.08;;;0.30;;
36445;SDS011;22472;50.848;-1.216;2023-11-21T08:25:51;0.98;;;0.20;;
36445;SDS011;22472;50.848;-1.216;2023-11-21T08:28:19;1.55;;;0.20;;
36445;SDS011;22472;50.848;-1.216;2023-11-21T08:30:47;1.65;;;0.30;;
36445;SDS011;22472;50.848;-1.216;2023-11-21T08:33:14;1.98;;;0.25;;
36445;SDS011;22472;50.848;-1.216;2023-11-21T08:35:41;1.33;;;0.38;;
36445;SDS011;22472;50.848;-1.216;2023-11-21T08:38:09;1.67;;;0.30;;
36445;SDS011;22472;50.848;-1.216;2023-11-21T08:40:38;1.60;;;0.20;;
36445;SDS011;22472;50.848;-1.216;2023-11-21T08:43:05;1.15;;;0.22;;
36445;SDS011;22472;50.848;-1.216;2023-11-21T08:45:33;2.55;;;0.25;;
36445;SDS011;22472;50.848;-1.216;2023-11-21T08:48:01;1.52;;;0.35;;
36445;SDS011;22472;50.848;-1.216;2023-11-21T08:50:28;2.45;;;0.40;;
36445;SDS011;22472;50.848;-1.216;2023-11-21T08:52:56;1.75;;;0.30;;
36445;SDS011;22472;50.848;-1.216;2023-11-21T08:55:23;1.80;;;0.30;;
36445;SDS011;22472;50.848;-1.216;2023-11-21T08:57:51;2.45;;;0.40;;
36445;SDS011;22472;50.848;-1.216;2023-11-21T09:00:19;2.60;;;0.40;;
36445;SDS011;22472;50.848;-1.216;2023-11-21T09:02:47;0.63;;;0.22;;
36445;SDS011;22472;50.848;-1.216;2023-11-21T09:05:14;2.88;;;0.40;;
36445;SDS011;22472;50.848;-1.216;2023-11-21T09:07:42;2.08;;;0.25;;
36445;SDS011;22472;50.848;-1.216;2023-11-21T09:10:11;2.03;;;0.30;;
36445;SDS011;22472;50.848;-1.216;2023-11-21T09:12:38;1.15;;;0.30;;
36445;SDS011;22472;50.848;-1.216;2023-11-21T09:15:07;2.17;;;0.30;;
36445;SDS011;22472;50.848;-1.216;2023-11-21T09:20:05;1.05;;;0.30;;
36445;SDS011;22472;50.848;-1.216;2023-11-21T09:22:35;1.08;;;0.43;;
36445;SDS011;22472;50.848;-1.216;2023-11-21T09:25:02;1.25;;;0.30;;
36445;SDS011;22472;50.848;-1.216;2023-11-21T09:27:31;1.30;;;0.40;;
36445;SDS011;22472;50.848;-1.216;2023-11-21T09:29:58;1.27;;;0.30;;
36445;SDS011;22472;50.848;-1.216;2023-11-21T09:32:26;1.77;;;0.20;;
36445;SDS011;22472;50.848;-1.216;2023-11-21T09:34:55;1.67;;;0.20;;
36445;SDS011;22472;50.848;-1.216;2023-11-21T09:37:23;2.75;;;0.20;;
36445;SDS011;22472;50.848;-1.216;2023-11-21T09:39:52;0.98;;;0.10;;
36445;SDS011;22472;50.848;-1.216;2023-11-21T09:42:22;0.50;;;0.10;;
36445;SDS011;22472;50.848;-1.216;2023-11-21T09:44:51;0.35;;;0.10;;
36445;SDS011;22472;50.848;-1.216;2023-11-21T09:47:21;0.95;;;0.20;;
36445;SDS011;22472;50.848;-1.216;2023-11-21T09:49:50;1.92;;;0.30;;
36445;SDS011;22472;50.848;-1.216;2023-11-21T09:54:47;1.15;;;0.20;;
36445;SDS011;22472;50.848;-1.216;2023-11-21T09:57:15;1.33;;;0.20;;
36445;SDS011;22472;50.848;-1.216;2023-11-21T09:59:43;1.20;;;0.30;;
36445;SDS011;22472;50.848;-1.216;2023-11-21T10:02:12;2.10;;;0.30;;
36445;SDS011;22472;50.848;-1.216;2023-11-21T10:04:39;1.33;;;0.20;;
36445;SDS011;22472;50.848;-1.216;2023-11-21T10:07:08;1.75;;;0.20;;
36445;SDS011;22472;50.848;-1.216;2023-11-21T10:09:36;2.60;;;0.30;;
36445;SDS011;22472;50.848;-1.216;2023-11-21T10:12:04;0.88;;;0.30;;
36445;SDS011;22472;50.848;-1.216;2023-11-21T10:14:33;0.93;;;0.10;;
36445;SDS011;22472;50.848;-1.216;2023-11-21T10:17:01;1.20;;;0.30;;
36445;SDS011;22472;50.848;-1.216;2023-11-21T10:19:28;1.27;;;0.30;;
36445;SDS011;22472;50.848;-1.216;2023-11-21T10:21:55;3.03;;;0.40;;
36445;SDS011;22472;50.848;-1.216;2023-11-21T10:24:26;1.70;;;0.30;;
36445;SDS011;22472;50.848;-1.216;2023-11-21T10:26:53;0.93;;;0.17;;
36445;SDS011;22472;50.848;-1.216;2023-11-21T10:29:20;1.83;;;0.30;;
36445;SDS011;22472;50.848;-1.216;2023-11-21T10:31:48;0.90;;;0.20;;
36445;SDS011;22472;50.848;-1.216;2023-11-21T10:34:17;3.30;;;0.20;;
36445;SDS011;22472;50.848;-1.216;2023-11-21T10:36:44;3.33;;;0.20;;
36445;SDS011;22472;50.848;-1.216;2023-11-21T10:39:13;0.63;;;0.10;;
36445;SDS011;22472;50.848;-1.216;2023-11-21T10:41:45;0.95;;;0.20;;
36445;SDS011;22472;50.848;-1.216;2023-11-21T10:44:13;3.75;;;0.20;;
36445;SDS011;22472;50.848;-1.216;2023-11-21T10:46:45;1.60;;;0.10;;
36445;SDS011;22472;50.848;-1.216;2023-11-21T10:49:15;1.25;;;0.20;;
36445;SDS011;22472;50.848;-1.216;2023-11-21T10:51:43;1.80;;;0.10;;
36445;SDS011;22472;50.848;-1.216;2023-11-21T10:54:11;0.60;;;0.10;;
36445;SDS011;22472;50.848;-1.216;2023-11-21T10:56:38;2.10;;;0.20;;
36445;SDS011;22472;50.848;-1.216;2023-11-21T10:59:10;1.20;;;0.20;;
36445;SDS011;22472;50.848;-1.216;2023-11-21T11:01:39;0.57;;;0.10;;
36445;SDS011;22472;50.848;-1.216;2023-11-21T11:04:08;0.70;;;0.20;;
36445;SDS011;22472;50.848;-1.216;2023-11-21T11:06:40;1.20;;;0.17;;
36445;SDS011;22472;50.848;-1.216;2023-11-21T11:09:08;2.60;;;0.20;;
36445;SDS011;22472;50.848;-1.216;2023-11-21T11:11:38;0.93;;;0.13;;
36445;SDS011;22472;50.848;-1.216;2023-11-21T11:14:06;1.48;;;0.20;;
36445;SDS011;22472;50.848;-1.216;2023-11-21T11:16:35;1.95;;;0.20;;
36445;SDS011;22472;50.848;-1.216;2023-11-21T11:19:03;0.60;;;0.20;;
36445;SDS011;22472;50.848;-1.216;2023-11-21T11:21:32;2.00;;;0.20;;
36445;SDS011;22472;50.848;-1.216;2023-11-21T11:24:13;1.13;;;0.20;;
36445;SDS011;22472;50.848;-1.216;2023-11-21T11:26:46;1.90;;;0.20;;
36445;SDS011;22472;50.848;-1.216;2023-11-21T11:29:15;1.42;;;0.20;;
36445;SDS011;22472;50.848;-1.216;2023-11-21T11:31:50;1.05;;;0.17;;
36445;SDS011;22472;50.848;-1.216;2023-11-21T11:34:20;1.33;;;0.20;;
36445;SDS011;22472;50.848;-1.216;2023-11-21T11:36:53;0.57;;;0.10;;
36445;SDS011;22472;50.848;-1.216;2023-11-21T11:39:28;0.82;;;0.10;;
36445;SDS011;22472;50.848;-1.216;2023-11-21T11:41:56;1.25;;;0.20;;
36445;SDS011;22472;50.848;-1.216;2023-11-21T11:47:14;1.58;;;0.20;;
36445;SDS011;22472;50.848;-1.216;2023-11-21T11:49:54;2.22;;;0.20;;
36445;SDS011;22472;50.848;-1.216;2023-11-21T11:52:34;3.75;;;0.30;;
36445;SDS011;22472;50.848;-1.216;2023-11-21T11:55:02;1.45;;;0.20;;
36445;SDS011;22472;50.848;-1.216;2023-11-21T11:57:29;2.10;;;0.20;;
36445;SDS011;22472;50.848;-1.216;2023-11-21T12:00:07;2.22;;;0.20;;
36445;SDS011;22472;50.848;-1.216;2023-11-21T12:02:42;1.40;;;0.20;;
36445;SDS011;22472;50.848;-1.216;2023-11-21T12:05:11;1.13;;;0.20;;
36445;SDS011;22472;50.848;-1.216;2023-11-21T12:07:41;0.85;;;0.20;;
36445;SDS011;22472;50.848;-1.216;2023-11-21T12:10:10;1.25;;;0.20;;
36445;SDS011;22472;50.848;-1.216;2023-11-21T12:12:41;1.88;;;0.30;;
36445;SDS011;22472;50.848;-1.216;2023-11-21T12:15:10;1.75;;;0.20;;
36445;SDS011;22472;50.848;-1.216;2023-11-21T12:17:38;1.48;;;0.20;;
36445;SDS011;22472;50.848;-1.216;2023-11-21T12:20:07;1.10;;;0.30;;
36445;SDS011;22472;50.848;-1.216;2023-11-21T12:22:41;1.38;;;0.20;;
36445;SDS011;22472;50.848;-1.216;2023-11-21T12:25:08;0.75;;;0.10;;
36445;SDS011;22472;50.848;-1.216;2023-11-21T12:27:40;1.33;;;0.22;;
36445;SDS011;22472;50.848;-1.216;2023-11-21T12:30:07;0.80;;;0.28;;
36445;SDS011;22472;50.848;-1.216;2023-11-21T12:32:39;1.30;;;0.32;;
36445;SDS011;22472;50.848;-1.216;2023-11-21T12:35:08;0.70;;;0.30;;
36445;SDS011;22472;50.848;-1.216;2023-11-21T12:37:36;2.72;;;0.30;;
36445;SDS011;22472;50.848;-1.216;2023-11-21T12:40:05;1.13;;;0.35;;
36445;SDS011;22472;50.848;-1.216;2023-11-21T12:42:33;1.23;;;0.30;;
36445;SDS011;22472;50.848;-1.216;2023-11-21T12:45:10;1.23;;;0.20;;
36445;SDS011;22472;50.848;-1.216;2023-11-21T12:47:45;0.98;;;0.30;;
36445;SDS011;22472;50.848;-1.216;2023-11-21T12:50:14;0.90;;;0.40;;
36445;SDS011;22472;50.848;-1.216;2023-11-21T12:52:42;1.60;;;0.40;;
36445;SDS011;22472;50.848;-1.216;2023-11-21T12:55:13;1.95;;;0.30;;
36445;SDS011;22472;50.848;-1.216;2023-11-21T12:57:41;0.82;;;0.38;;
36445;SDS011;22472;50.848;-1.216;2023-11-21T13:00:10;2.75;;;0.30;;
36445;SDS011;22472;50.848;-1.216;2023-11-21T13:02:38;0.95;;;0.30;;
36445;SDS011;22472;50.848;-1.216;2023-11-21T13:05:07;2.03;;;0.30;;
36445;SDS011;22472;50.848;-1.216;2023-11-21T13:07:48;1.00;;;0.40;;
36445;SDS011;22472;50.848;-1.216;2023-11-21T13:10:19;1.42;;;0.40;;
36445;SDS011;22472;50.848;-1.216;2023-11-21T13:12:51;0.93;;;0.30;;
36445;SDS011;22472;50.848;-1.216;2023-11-21T13:15:20;2.97;;;0.57;;
36445;SDS011;22472;50.848;-1.216;2023-11-21T13:17:47;2.53;;;0.40;;
36445;SDS011;22472;50.848;-1.216;2023-11-21T13:20:16;1.42;;;0.40;;
36445;SDS011;22472;50.848;-1.216;2023-11-21T13:22:49;2.45;;;1.00;;
36445;SDS011;22472;50.848;-1.216;2023-11-21T13:25:19;7.80;;;3.70;;
36445;SDS011;22472;50.848;-1.216;2023-11-21T13:27:46;4.38;;;2.10;;
36445;SDS011;22472;50.848;-1.216;2023-11-21T13:30:14;4.93;;;3.17;;
36445;SDS011;22472;50.848;-1.216;2023-11-21T13:32:42;2.78;;;1.60;;
36445;SDS011;22472;50.848;-1.216;2023-11-21T13:35:09;3.00;;;1.70;;
36445;SDS011;22472;50.848;-1.216;2023-11-21T13:37:46;2.15;;;0.93;;
36445;SDS011;22472;50.848;-1.216;2023-11-21T13:40:20;2.55;;;0.80;;
36445;SDS011;22472;50.848;-1.216;2023-11-21T13:42:51;1.58;;;0.90;;
36445;SDS011;22472;50.848;-1.216;2023-11-21T13:45:20;2.15;;;0.90;;
36445;SDS011;22472;50.848;-1.216;2023-11-21T13:47:48;2.10;;;0.65;;
36445;SDS011;22472;50.848;-1.216;2023-11-21T13:50:17;2.08;;;0.88;;
36445;SDS011;22472;50.848;-1.216;2023-11-21T13:52:48;1.70;;;0.70;;
36445;SDS011;22472;50.848;-1.216;2023-11-21T13:55:16;2.25;;;0.40;;
36445;SDS011;22472;50.848;-1.216;2023-11-21T13:57:45;1.42;;;0.40;;
36445;SDS011;22472;50.848;-1.216;2023-11-21T14:00:15;1.55;;;0.40;;
36445;SDS011;22472;50.848;-1.216;2023-11-21T14:02:56;1.13;;;0.20;;
36445;SDS011;22472;50.848;-1.216;2023-11-21T14:05:25;1.67;;;0.30;;
36445;SDS011;22472;50.848;-1.216;2023-11-21T14:07:54;0.80;;;0.20;;
36445;SDS011;22472;50.848;-1.216;2023-11-21T14:10:27;0.90;;;0.20;;
36445;SDS011;22472;50.848;-1.216;2023-11-21T14:13:03;0.52;;;0.10;;
36445;SDS011;22472;50.848;-1.216;2023-11-21T14:15:31;0.40;;;0.00;;
36445;SDS011;22472;50.848;-1.216;2023-11-21T14:18:02;1.25;;;0.10;;
36445;SDS011;22472;50.848;-1.216;2023-11-21T14:20:33;0.90;;;0.20;;
36445;SDS011;22472;50.848;-1.216;2023-11-21T14:23:01;0.43;;;0.10;;
36445;SDS011;22472;50.848;-1.216;2023-11-21T14:25:29;1.23;;;0.10;;
36445;SDS011;22472;50.848;-1.216;2023-11-21T14:27:57;0.47;;;0.00;;
36445;SDS011;22472;50.848;-1.216;2023-11-21T14:30:25;0.52;;;0.00;;
36445;SDS011;22472;50.848;-1.216;2023-11-21T14:32:55;0.57;;;0.05;;
36445;SDS011;22472;50.848;-1.216;2023-11-21T14:35:22;0.70;;;0.00;;
36445;SDS011;22472;50.848;-1.216;2023-11-21T14:37:49;0.25;;;0.00;;
36445;SDS011;22472;50.848;-1.216;2023-11-21T14:40:17;1.50;;;0.17;;
36445;SDS011;22472;50.848;-1.216;2023-11-21T14:42:49;0.30;;;0.00;;
36445;SDS011;22472;50.848;-1.216;2023-11-21T14:45:18;0.70;;;0.20;;
36445;SDS011;22472;50.848;-1.216;2023-11-21T14:47:47;0.40;;;0.10;;
36445;SDS011;22472;50.848;-1.216;2023-11-21T14:50:22;0.52;;;0.20;;